Time;durP1;ratioP1;P1;durP2;ratioP2;P2;SDS_P1;SDS_P2;PMS_P1;PMS_P2;Temp;Humidity;BMP_temperature;BMP_pressure;BME280_temperature;BME280_humidity;BME280_pressure;Samples;Min_cycle;Max_cycle;Signal;HPM_P1;HPM_P2
2021/07/25 00:01:00;;;;;;;66.38;41.85;;;;;;;;;;5133298;27;20066;-78
2021/07/25 00:03:26;;;;;;;43.33;33.47;;;;;;;;;;5131801;27;20125;-78
2021/07/25 00:05:52;;;;;;;49.47;36.85;;;;;;;;;;5131168;27;20035;-78
2021/07/25 00:08:18;;;;;;;56.53;37.28;;;;;;;;;;5132091;27;20035;-78
2021/07/25 00:10:49;;;;;;;57.70;40.10;;;;;;;;;;5130508;27;20501;-78
2021/07/25 00:13:16;;;;;;;55.17;38.13;;;;;;;;;;5121616;27;20063;-78
2021/07/25 00:15:43;;;;;;;67.07;41.92;;;;;;;;;;5150650;27;20294;-77
2021/07/25 00:18:09;;;;;;;56.05;37.38;;;;;;;;;;5131910;27;20484;-78
2021/07/25 00:20:35;;;;;;;73.25;43.55;;;;;;;;;;5132932;27;20097;-77
2021/07/25 00:23:02;;;;;;;62.90;41.65;;;;;;;;;;5132108;27;20410;-78
2021/07/25 00:25:28;;;;;;;66.70;40.05;;;;;;;;;;5130597;27;20130;-77
2021/07/25 00:27:55;;;;;;;54.92;36.97;;;;;;;;;;5128428;27;20091;-77
2021/07/25 00:30:26;;;;;;;58.13;38.30;;;;;;;;;;5132305;27;20046;-77
2021/07/25 00:32:52;;;;;;;49.53;34.40;;;;;;;;;;5130937;27;20062;-77
2021/07/25 00:35:19;;;;;;;52.85;35.90;;;;;;;;;;5132572;27;20042;-77
2021/07/25 00:37:47;;;;;;;57.50;35.53;;;;;;;;;;5131681;27;20047;-77
2021/07/25 00:40:30;;;;;;;42.97;31.13;;;;;;;;;;5131338;27;20047;-77
2021/07/25 00:42:56;;;;;;;37.38;27.92;;;;;;;;;;5130119;27;20073;-77
2021/07/25 00:45:22;;;;;;;39.30;28.17;;;;;;;;;;5132153;27;20043;-77
2021/07/25 00:47:48;;;;;;;31.80;24.38;;;;;;;;;;5130718;27;20397;-78
2021/07/25 00:50:15;;;;;;;36.00;25.33;;;;;;;;;;5132632;27;20066;-78
2021/07/25 00:52:41;;;;;;;41.75;26.70;;;;;;;;;;5131903;27;20039;-77
2021/07/25 00:55:08;;;;;;;28.08;22.77;;;;;;;;;;5132410;27;20034;-77
2021/07/25 00:57:34;;;;;;;23.58;19.70;;;;;;;;;;5132419;27;20070;-77
2021/07/25 01:00:00;;;;;;;35.63;24.67;;;;;;;;;;5131014;27;20538;-77
2021/07/25 01:02:29;;;;;;;22.23;19.65;;;;;;;;;;5128240;27;20114;-77
2021/07/25 01:04:59;;;;;;;28.95;20.90;;;;;;;;;;5131132;27;20039;-77
2021/07/25 01:07:38;;;;;;;29.38;20.65;;;;;;;;;;5131761;27;20081;-78
2021/07/25 01:10:07;;;;;;;30.23;21.60;;;;;;;;;;5131168;27;20035;-77
2021/07/25 01:12:38;;;;;;;25.45;19.55;;;;;;;;;;5132048;27;21555;-78
2021/07/25 01:15:05;;;;;;;26.55;19.23;;;;;;;;;;5127745;27;20125;-77
2021/07/25 01:17:34;;;;;;;28.95;22.80;;;;;;;;;;5130870;27;20462;-77
2021/07/25 01:20:05;;;;;;;28.25;22.38;;;;;;;;;;5130115;27;20043;-76
2021/07/25 01:22:34;;;;;;;34.70;24.23;;;;;;;;;;5130518;27;20040;-77
2021/07/25 01:25:01;;;;;;;33.67;25.02;;;;;;;;;;5131367;27;20490;-76
2021/07/25 01:27:56;;;;;;;27.27;21.70;;;;;;;;;;5131338;27;20034;-76
2021/07/25 01:30:23;;;;;;;45.55;28.73;;;;;;;;;;5116774;27;20498;-77
2021/07/25 01:32:51;;;;;;;47.22;30.70;;;;;;;;;;5130806;27;20079;-76
2021/07/25 01:35:17;;;;;;;39.80;27.02;;;;;;;;;;5131482;27;20091;-76
2021/07/25 01:37:45;;;;;;;40.95;29.92;;;;;;;;;;5131744;27;20078;-76
2021/07/25 01:40:16;;;;;;;32.95;24.95;;;;;;;;;;5129860;27;20042;-77
2021/07/25 01:42:43;;;;;;;40.70;27.95;;;;;;;;;;5131467;27;20034;-76
2021/07/25 01:45:10;;;;;;;33.13;25.52;;;;;;;;;;5129948;27;20541;-76
2021/07/25 01:47:36;;;;;;;37.13;25.25;;;;;;;;;;5131200;27;20067;-77
2021/07/25 01:50:04;;;;;;;43.70;27.95;;;;;;;;;;5130762;28;20447;-77
2021/07/25 01:52:30;;;;;;;46.88;28.63;;;;;;;;;;5129685;28;20047;-78
2021/07/25 01:54:58;;;;;;;51.47;31.35;;;;;;;;;;5110456;28;20039;-77
2021/07/25 01:57:25;;;;;;;41.63;27.60;;;;;;;;;;5130127;28;20063;-77
2021/07/25 01:59:51;;;;;;;41.95;27.48;;;;;;;;;;5130878;28;20526;-77
2021/07/25 02:02:17;;;;;;;48.55;30.15;;;;;;;;;;5129842;28;20055;-77
2021/07/25 02:04:44;;;;;;;45.55;29.10;;;;;;;;;;5130107;28;20130;-78
2021/07/25 02:07:10;;;;;;;50.47;28.55;;;;;;;;;;5128007;28;20092;-77
2021/07/25 02:09:36;;;;;;;57.00;31.80;;;;;;;;;;5129857;28;20047;-77
2021/07/25 02:12:04;;;;;;;71.47;35.58;;;;;;;;;;5128549;28;20066;-76
2021/07/25 02:14:31;;;;;;;73.80;35.60;;;;;;;;;;5129575;28;20035;-76
2021/07/25 02:16:57;;;;;;;36.47;24.35;;;;;;;;;;5129139;27;20473;-77
2021/07/25 02:19:24;;;;;;;35.05;24.23;;;;;;;;;;5133523;27;20478;-77
2021/07/25 02:21:50;;;;;;;44.50;26.25;;;;;;;;;;5129745;27;20517;-76
2021/07/25 02:24:19;;;;;;;55.40;28.80;;;;;;;;;;5123256;27;20039;-76
2021/07/25 02:26:45;;;;;;;94.80;34.92;;;;;;;;;;5130207;27;20035;-76
2021/07/25 02:29:11;;;;;;;78.20;32.40;;;;;;;;;;5132340;27;20047;-77
2021/07/25 02:31:38;;;;;;;119.60;42.42;;;;;;;;;;5135213;27;20051;-77
2021/07/25 02:34:04;;;;;;;61.67;34.00;;;;;;;;;;5134617;27;20377;-76
2021/07/25 02:36:30;;;;;;;47.38;29.48;;;;;;;;;;5134809;27;20035;-76
2021/07/25 02:38:56;;;;;;;85.75;36.00;;;;;;;;;;5115255;27;20043;-77
2021/07/25 02:41:23;;;;;;;57.78;24.75;;;;;;;;;;5132882;27;20035;-77
2021/07/25 02:43:49;;;;;;;58.13;25.90;;;;;;;;;;5133870;27;20047;-77
2021/07/25 02:46:16;;;;;;;69.18;29.02;;;;;;;;;;5130793;27;20035;-77
2021/07/25 02:48:42;;;;;;;40.85;23.02;;;;;;;;;;5133784;27;20149;-78
2021/07/25 02:51:08;;;;;;;29.08;19.95;;;;;;;;;;5133736;27;20130;-79
2021/07/25 02:53:35;;;;;;;36.08;20.35;;;;;;;;;;5133973;27;20114;-77
2021/07/25 02:56:01;;;;;;;31.13;18.80;;;;;;;;;;5134323;27;20039;-76
2021/07/25 02:58:27;;;;;;;28.00;16.90;;;;;;;;;;5134038;27;20039;-77
2021/07/25 03:00:53;;;;;;;24.55;15.75;;;;;;;;;;5135033;27;20050;-76
2021/07/25 03:03:20;;;;;;;51.67;22.13;;;;;;;;;;5132328;27;20066;-76
2021/07/25 03:05:46;;;;;;;65.03;26.45;;;;;;;;;;5133396;27;20386;-77
2021/07/25 03:08:12;;;;;;;58.65;26.40;;;;;;;;;;5130502;27;20039;-76
2021/07/25 03:10:42;;;;;;;36.70;22.02;;;;;;;;;;5132140;27;20042;-77
2021/07/25 03:13:08;;;;;;;42.30;23.63;;;;;;;;;;5128986;27;20039;-77
2021/07/25 03:15:34;;;;;;;26.20;16.65;;;;;;;;;;5132806;27;20035;-77
2021/07/25 03:18:00;;;;;;;23.25;14.25;;;;;;;;;;5115563;27;20058;-77
2021/07/25 03:20:26;;;;;;;33.55;18.55;;;;;;;;;;5132352;27;20534;-77
2021/07/25 03:22:53;;;;;;;43.30;18.38;;;;;;;;;;5132491;27;20047;-76
2021/07/25 03:25:19;;;;;;;83.50;22.77;;;;;;;;;;5130764;27;20035;-76
2021/07/25 03:27:45;;;;;;;80.88;24.55;;;;;;;;;;5132781;27;20046;-76
2021/07/25 03:30:12;;;;;;;77.43;23.33;;;;;;;;;;5131978;27;20035;-77
2021/07/25 03:32:38;;;;;;;58.45;20.75;;;;;;;;;;5133315;27;20096;-76
2021/07/25 03:35:04;;;;;;;68.88;26.65;;;;;;;;;;5132515;27;20531;-77
2021/07/25 03:37:32;;;;;;;53.55;23.27;;;;;;;;;;5133693;27;20078;-77
2021/07/25 03:39:59;;;;;;;47.70;25.08;;;;;;;;;;5114713;27;20039;-76
2021/07/25 03:42:25;;;;;;;23.75;16.75;;;;;;;;;;5132293;27;20036;-76
2021/07/25 03:44:52;;;;;;;20.15;14.65;;;;;;;;;;5133816;27;20047;-76
2021/07/25 03:47:18;;;;;;;12.00;10.00;;;;;;;;;;5132710;27;20122;-76
2021/07/25 03:49:44;;;;;;;15.77;12.35;;;;;;;;;;5132616;27;20095;-76
2021/07/25 03:52:12;;;;;;;17.00;14.20;;;;;;;;;;5133104;27;20440;-76
2021/07/25 03:54:42;;;;;;;22.77;16.10;;;;;;;;;;5133274;27;20043;-75
2021/07/25 03:57:08;;;;;;;20.65;16.95;;;;;;;;;;5131479;27;20043;-75
2021/07/25 03:59:34;;;;;;;25.15;17.48;;;;;;;;;;5132608;27;20056;-75
2021/07/25 04:02:01;;;;;;;24.42;19.80;;;;;;;;;;5129233;27;20039;-75
2021/07/25 04:04:27;;;;;;;31.52;21.15;;;;;;;;;;5132142;27;20386;-75
2021/07/25 04:06:53;;;;;;;29.23;21.83;;;;;;;;;;5133230;27;20070;-75
2021/07/25 04:09:19;;;;;;;30.50;22.50;;;;;;;;;;5132142;27;20043;-76
2021/07/25 04:11:49;;;;;;;33.30;21.85;;;;;;;;;;5133077;27;20500;-75
2021/07/25 04:14:15;;;;;;;33.60;22.17;;;;;;;;;;5132344;27;20031;-75
2021/07/25 04:16:42;;;;;;;19.45;15.75;;;;;;;;;;5133294;27;20431;-76
2021/07/25 04:19:08;;;;;;;15.98;13.13;;;;;;;;;;5132167;27;20063;-76
2021/07/25 04:21:34;;;;;;;18.92;14.43;;;;;;;;;;5131588;27;20095;-75
2021/07/25 04:24:03;;;;;;;14.85;12.63;;;;;;;;;;5131443;27;20046;-75
2021/07/25 04:26:29;;;;;;;15.63;12.20;;;;;;;;;;5132633;27;20176;-75
2021/07/25 04:28:56;;;;;;;13.95;12.30;;;;;;;;;;5131698;27;20039;-75
2021/07/25 04:31:22;;;;;;;20.67;15.57;;;;;;;;;;5130288;27;20061;-76
2021/07/25 04:33:53;;;;;;;23.25;18.38;;;;;;;;;;5132236;27;20035;-75
2021/07/25 04:36:26;;;;;;;25.05;20.27;;;;;;;;;;5132498;27;20046;-76
2021/07/25 04:38:53;;;;;;;42.78;25.55;;;;;;;;;;5132414;27;20571;-75
2021/07/25 04:41:22;;;;;;;29.92;22.45;;;;;;;;;;5129874;27;20371;-75
2021/07/25 04:43:50;;;;;;;29.83;21.90;;;;;;;;;;5131639;27;20039;-75
2021/07/25 04:46:27;;;;;;;38.80;25.90;;;;;;;;;;5130927;27;20039;-75
2021/07/25 04:49:00;;;;;;;36.50;23.45;;;;;;;;;;5130741;27;20049;-75
2021/07/25 04:51:27;;;;;;;24.88;17.42;;;;;;;;;;5130313;27;20050;-75
2021/07/25 04:53:54;;;;;;;25.38;19.92;;;;;;;;;;5132547;27;20043;-75
2021/07/25 04:56:21;;;;;;;23.77;19.30;;;;;;;;;;5130652;27;20114;-75
2021/07/25 04:58:50;;;;;;;26.90;19.85;;;;;;;;;;5131315;27;20057;-75
2021/07/25 05:01:18;;;;;;;22.23;18.00;;;;;;;;;;5131670;27;20474;-75
2021/07/25 05:03:45;;;;;;;20.67;16.60;;;;;;;;;;5132221;27;20127;-75
2021/07/25 05:06:13;;;;;;;27.27;19.85;;;;;;;;;;5131507;27;20031;-75
2021/07/25 05:08:39;;;;;;;25.33;19.17;;;;;;;;;;5132176;27;20453;-76
2021/07/25 05:11:11;;;;;;;21.38;16.52;;;;;;;;;;5129411;27;20462;-75
2021/07/25 05:13:38;;;;;;;18.63;15.73;;;;;;;;;;5130571;27;20035;-75
2021/07/25 05:16:07;;;;;;;18.77;15.30;;;;;;;;;;5130647;27;20045;-76
2021/07/25 05:18:37;;;;;;;19.77;16.38;;;;;;;;;;5130529;27;20050;-75
2021/07/25 05:21:03;;;;;;;24.42;18.98;;;;;;;;;;5131098;27;20379;-75
2021/07/25 05:23:33;;;;;;;30.23;21.00;;;;;;;;;;5131140;27;20050;-75
2021/07/25 05:26:00;;;;;;;30.30;21.77;;;;;;;;;;5131745;27;20140;-76
2021/07/25 05:28:26;;;;;;;43.53;24.42;;;;;;;;;;5130987;27;20145;-75
2021/07/25 05:30:53;;;;;;;28.13;22.58;;;;;;;;;;5119908;27;20482;-75
2021/07/25 05:33:20;;;;;;;34.50;23.27;;;;;;;;;;5124684;27;20043;-75
2021/07/25 05:35:46;;;;;;;31.23;23.35;;;;;;;;;;5130303;27;20114;-76
2021/07/25 05:38:13;;;;;;;32.45;22.35;;;;;;;;;;5129009;27;20047;-75
2021/07/25 05:40:39;;;;;;;31.13;20.70;;;;;;;;;;5128566;28;20050;-76
2021/07/25 05:43:05;;;;;;;22.02;17.58;;;;;;;;;;5130736;28;20047;-75
2021/07/25 05:45:32;;;;;;;23.95;19.58;;;;;;;;;;5127501;28;20035;-75
2021/07/25 05:47:58;;;;;;;33.70;23.40;;;;;;;;;;5129340;28;20031;-75
2021/07/25 05:50:24;;;;;;;29.67;22.02;;;;;;;;;;5128263;28;20100;-76
2021/07/25 05:52:52;;;;;;;36.75;24.33;;;;;;;;;;5128256;27;20423;-76
2021/07/25 05:55:19;;;;;;;38.92;25.98;;;;;;;;;;5129715;28;20043;-75
2021/07/25 05:57:45;;;;;;;44.10;28.02;;;;;;;;;;5130665;28;20488;-75
2021/07/25 06:00:11;;;;;;;43.33;29.48;;;;;;;;;;5127653;28;20051;-76
2021/07/25 06:02:50;;;;;;;42.95;29.00;;;;;;;;;;5129790;28;20035;-76
2021/07/25 06:05:16;;;;;;;42.40;28.00;;;;;;;;;;5130206;28;20035;-75
2021/07/25 06:07:43;;;;;;;75.50;31.27;;;;;;;;;;5128678;28;20054;-75
2021/07/25 06:10:09;;;;;;;41.65;28.73;;;;;;;;;;5129505;28;20069;-76
2021/07/25 06:12:39;;;;;;;45.55;29.05;;;;;;;;;;5127413;28;20091;-75
2021/07/25 06:15:06;;;;;;;36.63;26.38;;;;;;;;;;5130717;28;20462;-76
2021/07/25 06:17:32;;;;;;;41.60;28.75;;;;;;;;;;5128278;28;20060;-75
2021/07/25 06:19:58;;;;;;;35.92;26.63;;;;;;;;;;5128573;28;20398;-75
2021/07/25 06:22:24;;;;;;;44.25;28.17;;;;;;;;;;5128758;28;20039;-75
2021/07/25 06:24:50;;;;;;;35.08;24.38;;;;;;;;;;5129416;28;20038;-76
2021/07/25 06:27:16;;;;;;;34.58;25.13;;;;;;;;;;5128431;28;20040;-75
2021/07/25 06:29:42;;;;;;;38.83;27.95;;;;;;;;;;5129209;28;20039;-75
2021/07/25 06:32:09;;;;;;;30.80;24.55;;;;;;;;;;5128457;28;20465;-75
2021/07/25 06:34:35;;;;;;;38.92;26.85;;;;;;;;;;5130094;28;20043;-75
2021/07/25 06:37:08;;;;;;;35.87;25.57;;;;;;;;;;5090815;28;1097100;-75
2021/07/25 06:39:34;;;;;;;43.90;29.08;;;;;;;;;;5111983;28;20443;-76
2021/07/25 06:42:00;;;;;;;45.40;30.75;;;;;;;;;;5129524;28;20031;-75
2021/07/25 06:44:26;;;;;;;33.47;25.27;;;;;;;;;;5125143;28;20074;-75
2021/07/25 06:46:53;;;;;;;47.33;31.77;;;;;;;;;;5129081;28;20104;-75
2021/07/25 06:49:19;;;;;;;48.65;32.58;;;;;;;;;;5128663;28;20104;-75
2021/07/25 06:51:45;;;;;;;39.33;28.25;;;;;;;;;;5130549;27;20447;-76
2021/07/25 06:54:12;;;;;;;35.75;27.90;;;;;;;;;;5129126;28;20114;-75
2021/07/25 06:56:38;;;;;;;43.83;30.42;;;;;;;;;;5130379;28;20047;-76
2021/07/25 06:59:04;;;;;;;45.08;31.15;;;;;;;;;;5112588;28;20031;-76
2021/07/25 07:01:30;;;;;;;39.63;28.38;;;;;;;;;;5128522;28;20039;-75
2021/07/25 07:03:56;;;;;;;45.08;30.13;;;;;;;;;;5131997;27;20496;-77
2021/07/25 07:06:22;;;;;;;47.15;31.80;;;;;;;;;;5132548;27;20054;-76
2021/07/25 07:08:48;;;;;;;35.60;26.92;;;;;;;;;;5133696;27;20047;-77
2021/07/25 07:11:14;;;;;;;33.53;25.15;;;;;;;;;;5132352;27;20035;-76
2021/07/25 07:13:41;;;;;;;26.92;22.60;;;;;;;;;;5129691;27;20035;-77
2021/07/25 07:16:07;;;;;;;23.33;18.92;;;;;;;;;;5134621;27;20043;-77
2021/07/25 07:18:33;;;;;;;18.90;16.90;;;;;;;;;;5133848;27;20043;-77
2021/07/25 07:20:59;;;;;;;21.40;17.75;;;;;;;;;;5133065;27;20126;-77
2021/07/25 07:23:25;;;;;;;19.33;16.77;;;;;;;;;;5131916;27;20054;-75
2021/07/25 07:25:52;;;;;;;19.60;17.50;;;;;;;;;;5130139;27;20084;-76
2021/07/25 07:28:19;;;;;;;16.77;14.75;;;;;;;;;;5134048;27;20060;-76
2021/07/25 07:30:47;;;;;;;;;;;;;;;;;;5133717;27;20039;-76
2021/07/25 07:33:13;;;;;;;;;;;;;;;;;;5134086;27;19923;-76
2021/07/25 07:35:39;;;;;;;;;;;;;;;;;;5164980;27;19931;-76
2021/07/25 07:38:05;;;;;;;;;;;;;;;;;;5131927;27;19998;-77
2021/07/25 07:40:31;;;;;;;;;;;;;;;;;;5130797;27;19923;-76
2021/07/25 07:42:58;;;;;;;;;;;;;;;;;;5161068;27;19938;-76
2021/07/25 07:45:24;;;;;;;;;;;;;;;;;;5133971;27;19923;-76
2021/07/25 07:47:50;;;;;;;;;;;;;;;;;;5133968;27;19927;-77
2021/07/25 07:50:17;;;;;;;;;;;;;;;;;;5132770;27;19919;-77
2021/07/25 07:52:43;;;;;;;10.45;8.20;;;;;;;;;;5132463;27;19927;-77
2021/07/25 07:55:09;;;;;;;10.77;8.95;;;;;;;;;;5114414;27;20404;-77
2021/07/25 07:57:36;;;;;;;9.93;8.23;;;;;;;;;;5130954;27;20031;-76
2021/07/25 08:00:02;;;;;;;10.40;9.30;;;;;;;;;;5133330;27;20050;-77
2021/07/25 08:02:29;;;;;;;11.70;10.32;;;;;;;;;;5132195;27;20039;-76
2021/07/25 08:04:57;;;;;;;11.07;9.90;;;;;;;;;;5131971;27;20043;-76
2021/07/25 08:07:23;;;;;;;13.50;11.75;;;;;;;;;;5131948;27;20062;-77
2021/07/25 08:09:50;;;;;;;14.27;11.52;;;;;;;;;;5131824;27;20043;-76
2021/07/25 08:12:16;;;;;;;13.40;12.10;;;;;;;;;;5129244;27;20046;-76
2021/07/25 08:14:42;;;;;;;13.98;12.32;;;;;;;;;;5129890;27;20047;-76
2021/07/25 08:17:08;;;;;;;14.18;12.80;;;;;;;;;;5132266;27;20402;-76
2021/07/25 08:19:34;;;;;;;14.45;12.18;;;;;;;;;;5132343;27;20042;-77
2021/07/25 08:22:02;;;;;;;13.23;11.73;;;;;;;;;;5132912;27;20092;-76
2021/07/25 08:24:28;;;;;;;14.15;12.63;;;;;;;;;;5131738;27;20062;-76
2021/07/25 08:26:54;;;;;;;13.88;12.48;;;;;;;;;;5132755;27;20039;-76
2021/07/25 08:29:21;;;;;;;14.35;12.85;;;;;;;;;;5131615;27;20043;-76
2021/07/25 08:31:47;;;;;;;15.20;11.88;;;;;;;;;;5130177;27;20069;-76
2021/07/25 08:34:13;;;;;;;12.13;10.90;;;;;;;;;;5131432;27;20099;-76
2021/07/25 08:36:39;;;;;;;13.32;11.93;;;;;;;;;;5128898;27;20039;-76
2021/07/25 08:39:05;;;;;;;16.15;12.52;;;;;;;;;;5118220;27;20088;-76
2021/07/25 08:41:54;;;;;;;14.30;12.00;;;;;;;;;;5137315;27;20393;-76
2021/07/25 08:44:39;;;;;;;15.13;11.88;;;;;;;;;;5131981;27;20136;-76
2021/07/25 08:47:13;;;;;;;16.38;12.80;;;;;;;;;;5132302;27;20171;-77
2021/07/25 08:49:42;;;;;;;13.43;11.32;;;;;;;;;;5128642;27;20524;-76
2021/07/25 08:52:14;;;;;;;13.93;11.35;;;;;;;;;;5127847;27;20559;-77
2021/07/25 08:54:40;;;;;;;12.20;10.65;;;;;;;;;;5130833;27;20039;-77
2021/07/25 08:57:10;;;;;;;13.30;11.30;;;;;;;;;;5132287;27;20057;-77
2021/07/25 08:59:37;;;;;;;11.23;9.95;;;;;;;;;;5130206;27;20474;-77
2021/07/25 09:02:06;;;;;;;11.02;9.50;;;;;;;;;;5131297;27;20109;-77
2021/07/25 09:04:33;;;;;;;14.32;10.30;;;;;;;;;;5128715;27;20047;-76
2021/07/25 09:07:02;;;;;;;11.52;9.73;;;;;;;;;;5130779;27;20110;-77
2021/07/25 09:09:28;;;;;;;11.70;9.35;;;;;;;;;;5130844;27;20035;-77
2021/07/25 09:11:54;;;;;;;12.52;10.13;;;;;;;;;;5113518;27;20054;-76
2021/07/25 09:14:21;;;;;;;12.02;8.63;;;;;;;;;;5131463;27;20110;-77
2021/07/25 09:16:47;;;;;;;10.75;9.60;;;;;;;;;;5131605;27;20731;-77
2021/07/25 09:19:13;;;;;;;12.25;10.25;;;;;;;;;;5130335;27;20039;-76
2021/07/25 09:21:47;;;;;;;12.80;11.13;;;;;;;;;;5130036;27;20047;-76
2021/07/25 09:24:26;;;;;;;20.17;12.73;;;;;;;;;;5131467;27;20031;-77
2021/07/25 09:26:52;;;;;;;14.90;11.77;;;;;;;;;;5128283;27;20047;-76
2021/07/25 09:29:19;;;;;;;20.25;13.73;;;;;;;;;;5131560;27;20162;-77
2021/07/25 09:31:45;;;;;;;16.75;14.95;;;;;;;;;;5131370;27;20496;-77
2021/07/25 09:34:11;;;;;;;19.35;14.50;;;;;;;;;;5131803;27;20043;-77
2021/07/25 09:36:39;;;;;;;20.60;16.83;;;;;;;;;;5129654;27;20385;-76
2021/07/25 09:39:05;;;;;;;20.63;15.50;;;;;;;;;;5130969;27;20080;-76
2021/07/25 09:41:32;;;;;;;18.38;15.40;;;;;;;;;;5130691;27;20038;-77
2021/07/25 09:44:00;;;;;;;17.08;15.23;;;;;;;;;;5129761;27;20084;-77
2021/07/25 09:46:26;;;;;;;15.68;14.07;;;;;;;;;;5132662;27;20035;-77
2021/07/25 09:48:59;;;;;;;15.27;13.68;;;;;;;;;;5112339;28;20428;-76
2021/07/25 09:51:26;;;;;;;14.80;13.25;;;;;;;;;;5129847;28;20031;-76
2021/07/25 09:53:53;;;;;;;15.57;13.45;;;;;;;;;;5113172;28;20043;-81
2021/07/25 09:56:26;;;;;;;14.65;13.13;;;;;;;;;;5131040;28;20035;-79
2021/07/25 09:58:54;;;;;;;15.68;13.48;;;;;;;;;;5124465;28;20126;-78
2021/07/25 10:01:39;;;;;;;17.15;14.57;;;;;;;;;;5127322;28;20118;-78
2021/07/25 10:04:12;;;;;;;16.20;14.50;;;;;;;;;;5121743;28;20130;-77
2021/07/25 10:06:48;;;;;;;16.17;14.48;;;;;;;;;;5123368;27;20063;-78
2021/07/25 10:09:19;;;;;;;16.00;14.18;;;;;;;;;;5110635;28;20499;-75
2021/07/25 10:11:49;;;;;;;16.17;14.32;;;;;;;;;;5120088;28;20043;-76
2021/07/25 10:14:16;;;;;;;18.15;14.35;;;;;;;;;;5132415;27;20061;-77
2021/07/25 10:16:42;;;;;;;18.50;16.50;;;;;;;;;;5112924;28;20050;-78
2021/07/25 10:19:09;;;;;;;22.13;15.45;;;;;;;;;;5132548;27;20077;-79
2021/07/25 10:21:36;;;;;;;21.50;17.02;;;;;;;;;;5121510;27;20092;-77
2021/07/25 10:24:03;;;;;;;18.67;15.98;;;;;;;;;;5124928;28;20435;-75
2021/07/25 10:26:29;;;;;;;18.25;15.98;;;;;;;;;;5118423;27;20059;-75
2021/07/25 10:28:56;;;;;;;17.88;15.95;;;;;;;;;;5117170;28;20027;-76
2021/07/25 10:31:26;;;;;;;20.70;17.92;;;;;;;;;;5121619;28;20374;-72
2021/07/25 10:33:53;;;;;;;22.77;19.73;;;;;;;;;;5153230;27;20035;-79
2021/07/25 10:36:40;;;;;;;22.85;20.17;;;;;;;;;;5093768;28;22083;-77
2021/07/25 10:39:06;;;;;;;23.65;20.65;;;;;;;;;;5122601;27;20035;-76
2021/07/25 10:41:32;;;;;;;26.83;23.92;;;;;;;;;;5132845;27;20041;-75
2021/07/25 10:44:02;;;;;;;26.45;22.30;;;;;;;;;;5127500;27;20035;-76
2021/07/25 10:46:29;;;;;;;27.02;24.05;;;;;;;;;;5120274;27;20051;-76
2021/07/25 10:49:09;;;;;;;29.50;25.40;;;;;;;;;;5127869;27;20028;-76
2021/07/25 10:51:37;;;;;;;29.40;24.92;;;;;;;;;;5131086;27;20038;-76
2021/07/25 10:54:22;;;;;;;27.27;22.90;;;;;;;;;;5128912;27;20299;-76
2021/07/25 10:57:04;;;;;;;26.48;21.58;;;;;;;;;;5122216;27;20070;-77
2021/07/25 10:59:37;;;;;;;25.20;21.77;;;;;;;;;;5133353;27;20070;-76
2021/07/25 11:02:03;;;;;;;28.33;23.92;;;;;;;;;;5130759;27;20057;-77
2021/07/25 11:04:48;;;;;;;25.88;22.90;;;;;;;;;;5132033;27;20047;-76
2021/07/25 11:07:41;;;;;;;25.35;22.65;;;;;;;;;;5128195;27;20031;-79
2021/07/25 11:10:12;;;;;;;27.73;23.15;;;;;;;;;;5118873;27;20138;-75
2021/07/25 11:12:50;;;;;;;28.17;21.65;;;;;;;;;;5134039;27;20038;-75
2021/07/25 11:15:32;;;;;;;29.05;20.52;;;;;;;;;;5134448;27;20039;-75
2021/07/25 11:18:05;;;;;;;23.58;18.65;;;;;;;;;;5134656;27;20122;-75
2021/07/25 11:20:56;;;;;;;22.83;19.42;;;;;;;;;;5132399;27;20064;-75
2021/07/25 11:23:22;;;;;;;22.25;18.95;;;;;;;;;;5122760;27;20047;-77
2021/07/25 11:25:49;;;;;;;21.30;18.25;;;;;;;;;;5129499;27;20035;-77
2021/07/25 11:28:34;;;;;;;21.83;17.90;;;;;;;;;;5134837;27;20057;-77
2021/07/25 11:31:00;;;;;;;21.30;18.85;;;;;;;;;;5128354;27;20143;-76
2021/07/25 11:33:39;;;;;;;21.23;18.10;;;;;;;;;;5132743;27;20046;-78
2021/07/25 11:36:06;;;;;;;22.92;20.58;;;;;;;;;;5162732;27;20043;-77
2021/07/25 11:38:35;;;;;;;23.20;18.95;;;;;;;;;;5133643;27;20439;-76
2021/07/25 11:41:02;;;;;;;22.20;18.65;;;;;;;;;;5132389;27;20050;-76
2021/07/25 11:43:49;;;;;;;23.08;19.75;;;;;;;;;;5135620;27;20034;-76
2021/07/25 11:46:29;;;;;;;21.27;17.63;;;;;;;;;;5121439;27;20130;-75
2021/07/25 11:49:05;;;;;;;20.35;15.15;;;;;;;;;;5133093;27;20039;-76
2021/07/25 11:51:31;;;;;;;14.20;12.65;;;;;;;;;;5134436;27;20043;-77
2021/07/25 11:53:58;;;;;;;14.50;12.00;;;;;;;;;;5131048;27;20504;-76
2021/07/25 11:56:24;;;;;;;14.23;12.32;;;;;;;;;;5133735;27;20551;-76
2021/07/25 11:59:04;;;;;;;13.65;11.88;;;;;;;;;;5132949;27;20049;-76
2021/07/25 12:01:31;;;;;;;13.93;12.38;;;;;;;;;;5137997;27;20043;-76
2021/07/25 12:03:57;;;;;;;13.55;11.32;;;;;;;;;;5123547;27;20478;-77
2021/07/25 12:06:23;;;;;;;12.05;10.85;;;;;;;;;;5105365;27;20043;-75
2021/07/25 12:09:05;;;;;;;14.68;12.02;;;;;;;;;;5132454;27;20035;-75
2021/07/25 12:11:32;;;;;;;12.85;11.60;;;;;;;;;;5130872;27;20047;-79
2021/07/25 12:13:58;;;;;;;14.00;12.00;;;;;;;;;;5113822;27;20050;-76
2021/07/25 12:16:24;;;;;;;15.27;12.85;;;;;;;;;;5138278;27;20351;-76
2021/07/25 12:18:51;;;;;;;14.18;11.75;;;;;;;;;;5124107;27;20043;-81
2021/07/25 12:21:31;;;;;;;12.43;11.05;;;;;;;;;;5123964;27;20039;-80
2021/07/25 12:23:57;;;;;;;13.38;10.60;;;;;;;;;;5126810;27;20043;-77
2021/07/25 12:26:40;;;;;;;11.68;10.48;;;;;;;;;;5131576;27;20043;-76
2021/07/25 12:29:25;;;;;;;14.15;11.15;;;;;;;;;;5121079;27;20039;-76
2021/07/25 12:31:51;;;;;;;12.20;11.00;;;;;;;;;;5120508;27;20397;-76
2021/07/25 12:34:23;;;;;;;13.27;11.07;;;;;;;;;;5122740;27;20045;-76
2021/07/25 12:36:49;;;;;;;11.63;10.45;;;;;;;;;;5120031;27;20092;-76
2021/07/25 12:39:19;;;;;;;14.13;11.98;;;;;;;;;;5124847;27;20561;-76
2021/07/25 12:41:45;;;;;;;12.63;10.88;;;;;;;;;;5144413;27;20122;-76
2021/07/25 12:44:25;;;;;;;12.32;11.05;;;;;;;;;;5125509;27;20048;-76
2021/07/25 12:46:51;;;;;;;16.38;11.77;;;;;;;;;;5120938;27;20066;-76
2021/07/25 12:49:17;;;;;;;12.32;11.13;;;;;;;;;;5125892;27;20468;-76
2021/07/25 12:51:43;;;;;;;13.70;11.20;;;;;;;;;;5153840;27;20542;-76
2021/07/25 12:54:12;;;;;;;15.13;11.50;;;;;;;;;;5132813;27;20493;-76
2021/07/25 12:56:38;;;;;;;13.57;11.45;;;;;;;;;;5133594;27;20035;-76
2021/07/25 12:59:10;;;;;;;12.57;11.27;;;;;;;;;;5132660;27;20078;-76
2021/07/25 13:04:09;;;;;;;16.02;11.32;;;;;;;;;;5132948;27;20100;-76
2021/07/25 13:06:40;;;;;;;12.02;10.27;;;;;;;;;;5132291;27;20035;-77
2021/07/25 13:09:07;;;;;;;15.68;12.10;;;;;;;;;;5131209;27;20063;-76
2021/07/25 13:11:33;;;;;;;12.68;11.38;;;;;;;;;;5131588;27;20075;-76
2021/07/25 13:14:03;;;;;;;15.02;11.90;;;;;;;;;;5131536;27;20057;-76
2021/07/25 13:16:30;;;;;;;13.73;11.15;;;;;;;;;;5131870;27;20142;-76
2021/07/25 13:18:56;;;;;;;13.57;12.23;;;;;;;;;;5115025;27;20055;-76
2021/07/25 13:21:23;;;;;;;13.88;12.18;;;;;;;;;;5112594;27;20043;-76
2021/07/25 13:23:50;;;;;;;12.65;11.35;;;;;;;;;;5132677;27;20063;-76
2021/07/25 13:26:16;;;;;;;13.05;11.70;;;;;;;;;;5116728;27;20432;-76
2021/07/25 13:28:42;;;;;;;12.30;11.02;;;;;;;;;;5132451;27;20367;-76
2021/07/25 13:31:08;;;;;;;13.05;11.57;;;;;;;;;;5110765;28;20044;-76
2021/07/25 13:33:35;;;;;;;12.90;11.65;;;;;;;;;;5130165;27;20036;-76
2021/07/25 13:36:02;;;;;;;13.13;11.73;;;;;;;;;;5132756;27;20043;-76
2021/07/25 13:38:29;;;;;;;15.27;10.77;;;;;;;;;;5132358;27;20054;-76
2021/07/25 13:40:55;;;;;;;14.07;10.43;;;;;;;;;;5131359;27;20077;-76
2021/07/25 13:43:23;;;;;;;11.85;10.70;;;;;;;;;;5123224;27;20135;-76
2021/07/25 13:45:54;;;;;;;11.73;9.93;;;;;;;;;;5131188;27;20478;-76
2021/07/25 13:48:20;;;;;;;11.63;10.27;;;;;;;;;;5132230;27;20039;-76
2021/07/25 13:50:47;;;;;;;11.63;9.85;;;;;;;;;;5111015;28;20130;-77
2021/07/25 13:53:15;;;;;;;11.57;10.45;;;;;;;;;;5122491;28;20478;-76
2021/07/25 13:55:41;;;;;;;14.75;11.50;;;;;;;;;;5131914;28;20390;-76
2021/07/25 13:58:08;;;;;;;12.05;10.82;;;;;;;;;;5130891;28;20077;-76
2021/07/25 14:00:34;;;;;;;13.18;10.40;;;;;;;;;;5132318;28;20051;-76
2021/07/25 14:03:00;;;;;;;13.50;10.93;;;;;;;;;;5131226;28;20039;-76
2021/07/25 14:05:28;;;;;;;11.50;10.38;;;;;;;;;;5130192;28;20035;-77
2021/07/25 14:07:54;;;;;;;9.40;8.50;;;;;;;;;;5130568;28;20178;-76
2021/07/25 14:10:20;;;;;;;8.27;7.47;;;;;;;;;;5130568;28;20044;-76
2021/07/25 14:12:46;;;;;;;9.60;8.70;;;;;;;;;;5121156;28;20050;-76
2021/07/25 14:15:12;;;;;;;10.63;9.63;;;;;;;;;;5133508;27;20486;-76
2021/07/25 14:17:38;;;;;;;11.65;10.45;;;;;;;;;;5136739;27;20046;-76
2021/07/25 14:20:05;;;;;;;11.65;10.38;;;;;;;;;;5133838;27;20036;-76
2021/07/25 14:22:31;;;;;;;16.35;11.43;;;;;;;;;;5131828;27;20073;-76
2021/07/25 14:24:57;;;;;;;12.52;11.23;;;;;;;;;;5118268;27;20046;-76
2021/07/25 14:27:24;;;;;;;12.25;10.90;;;;;;;;;;5117786;27;20047;-76
2021/07/25 14:29:50;;;;;;;12.18;10.98;;;;;;;;;;5134608;27;20047;-76